Time;durP1;ratioP1;P1;durP2;ratioP2;P2;SDS_P1;SDS_P2;PMS_P1;PMS_P2;Temp;Humidity;BMP_temperature;BMP_pressure;BME280_temperature;BME280_humidity;BME280_pressure;Samples;Min_cycle;Max_cycle;Signal;HPM_P1;HPM_P2
2022/04/03 00:00:32;;;;;;;11.50;4.07;;;;;;;7.54;100.00;61608.31;5094827;28;20539;-72
2022/04/03 00:02:59;;;;;;;9.13;3.80;;;;;;;7.54;100.00;61608.84;5095103;28;20429;-72
2022/04/03 00:05:26;;;;;;;5.27;2.70;;;;;;;7.56;100.00;61610.97;5094639;28;20434;-72
2022/04/03 00:07:55;;;;;;;5.00;2.50;;;;;;;7.46;100.00;61600.31;5095427;28;20438;-72
2022/04/03 00:10:22;;;;;;;3.63;2.30;;;;;;;7.61;100.00;61618.84;5094561;28;20469;-73
2022/04/03 00:12:50;;;;;;;5.73;1.80;;;;;;;7.67;100.00;61622.72;5094385;28;20453;-73
2022/04/03 00:15:18;;;;;;;2.10;1.73;;;;;;;7.62;100.00;61617.41;5094460;28;20434;-72
2022/04/03 00:17:46;;;;;;;3.47;2.40;;;;;;;7.68;100.00;61623.81;5094635;28;20437;-72
2022/04/03 00:20:13;;;;;;;4.40;2.23;;;;;;;7.56;100.00;61610.44;5096882;28;20515;-71
2022/04/03 00:22:42;;;;;;;3.50;2.07;;;;;;;7.85;100.00;61643.44;5098436;28;20429;-72
2022/04/03 00:25:11;;;;;;;5.43;2.70;;;;;;;7.78;100.00;61635.94;5094322;28;20859;-71
2022/04/03 00:27:38;;;;;;;7.07;2.00;;;;;;;7.83;100.00;61641.28;5094611;28;20453;-72
2022/04/03 00:30:06;;;;;;;5.67;2.00;;;;;;;7.86;100.00;61645.03;5093960;28;20450;-71
2022/04/03 00:32:34;;;;;;;3.70;1.97;;;;;;;7.98;100.00;61654.78;5094671;28;20490;-71
2022/04/03 00:35:03;;;;;;;3.23;1.57;;;;;;;7.98;100.00;61652.25;5094073;28;20459;-71
2022/04/03 00:37:30;;;;;;;3.40;1.83;;;;;;;7.99;100.00;61658.38;5094162;28;20905;-71
2022/04/03 00:39:57;;;;;;;4.00;2.10;;;;;;;7.96;100.00;61652.63;5093944;28;20554;-71
2022/04/03 00:42:25;;;;;;;2.20;1.80;;;;;;;7.92;100.00;61648.38;5094563;28;20438;-71
2022/04/03 00:44:52;;;;;;;2.00;1.60;;;;;;;8.12;100.00;61669.72;5094294;28;20438;-72
2022/04/03 00:47:21;;;;;;;3.47;1.53;;;;;;;8.04;100.00;61664.25;5093658;28;20437;-73
2022/04/03 00:49:48;;;;;;;5.07;1.83;;;;;;;8.01;100.00;61658.00;5093985;28;20491;-71
2022/04/03 00:52:17;;;;;;;4.67;1.70;;;;;;;8.04;100.00;61661.19;5094077;28;20434;-70
2022/04/03 00:54:47;;;;;;;3.10;1.50;;;;;;;8.05;100.00;61662.25;5093610;28;20932;-72
2022/04/03 00:57:15;;;;;;;2.27;1.60;;;;;;;8.17;100.00;61677.63;5094546;28;20522;-72
2022/04/03 00:59:43;;;;;;;6.60;2.13;;;;;;;8.20;100.00;61678.28;5094360;28;20437;-72
2022/04/03 01:02:10;;;;;;;8.33;1.80;;;;;;;7.76;100.00;61633.81;5093384;28;20438;-72
2022/04/03 01:04:38;;;;;;;2.50;1.53;;;;;;;8.28;100.00;61686.84;5093708;28;20445;-72
2022/04/03 01:07:05;;;;;;;7.20;2.30;;;;;;;8.23;100.00;61682.00;5093029;28;20469;-71
2022/04/03 01:09:34;;;;;;;3.20;1.97;;;;;;;7.75;100.00;61625.66;5091951;28;20493;-72
2022/04/03 01:12:01;;;;;;;2.33;1.80;;;;;;;8.23;100.00;61684.03;5093482;28;20491;-72
2022/04/03 01:14:32;;;;;;;2.00;1.70;;;;;;;8.09;100.00;61669.06;5093373;28;20445;-72
2022/04/03 01:16:59;;;;;;;2.80;1.70;;;;;;;8.03;100.00;61655.06;5093493;28;20502;-71
2022/04/03 01:19:26;;;;;;;3.70;2.17;;;;;;;8.30;100.00;61689.53;5093434;28;20864;-72
2022/04/03 01:21:54;;;;;;;4.07;2.23;;;;;;;7.46;100.00;61604.84;5093695;28;20481;-72
2022/04/03 01:24:22;;;;;;;5.23;2.40;;;;;;;8.14;100.00;61671.88;5093229;28;20986;-72
2022/04/03 01:26:51;;;;;;;3.33;1.83;;;;;;;8.02;100.00;61659.03;5092979;28;20506;-72
2022/04/03 01:29:18;;;;;;;3.43;1.90;;;;;;;7.89;100.00;61645.69;5093287;28;20430;-72
2022/04/03 01:31:48;;;;;;;3.20;1.80;;;;;;;7.84;100.00;61639.81;5093545;28;20473;-70
2022/04/03 01:34:19;;;;;;;4.90;1.80;;;;;;;7.66;100.00;61631.81;5093040;28;20437;-71
2022/04/03 01:36:47;;;;;;;7.13;1.73;;;;;;;7.89;100.00;61643.16;5092882;28;20461;-72
2022/04/03 01:39:14;;;;;;;4.20;1.80;;;;;;;7.76;100.00;61631.28;5092893;28;20510;-71
2022/04/03 01:41:43;;;;;;;3.57;1.60;;;;;;;7.08;100.00;61559.72;5093204;28;20489;-72
2022/04/03 01:44:12;;;;;;;3.00;1.77;;;;;;;7.73;100.00;61630.59;5092773;28;20458;-72
2022/04/03 01:46:40;;;;;;;2.33;1.50;;;;;;;7.67;100.00;61627.78;5093155;28;21302;-72
2022/04/03 01:49:07;;;;;;;4.80;1.43;;;;;;;7.56;100.00;61607.91;5093449;28;20445;-71
2022/04/03 01:51:35;;;;;;;3.27;1.47;;;;;;;7.44;100.00;61600.72;5092943;28;20442;-72
2022/04/03 01:54:03;;;;;;;2.67;1.40;;;;;;;7.60;100.00;61617.78;5092774;28;20441;-72
2022/04/03 01:56:30;;;;;;;5.53;1.63;;;;;;;7.59;100.00;61619.25;5092835;28;20498;-71
2022/04/03 01:58:57;;;;;;;3.37;1.60;;;;;;;7.45;100.00;61604.28;5092526;28;21046;-71
2022/04/03 02:01:26;;;;;;;4.33;1.50;;;;;;;7.34;100.00;61586.94;5093167;28;20481;-72
2022/04/03 02:03:52;;;;;;;2.10;1.40;;;;;;;7.32;100.00;61584.81;5092471;28;20450;-71
2022/04/03 02:06:19;;;;;;;6.13;1.20;;;;;;;7.18;100.00;61575.47;5092536;28;20437;-70
2022/04/03 02:08:46;;;;;;;2.57;1.20;;;;;;;7.17;100.00;61569.34;5092336;28;20911;-72
2022/04/03 02:11:14;;;;;;;3.60;1.33;;;;;;;6.83;100.00;61533.03;5092494;28;20519;-71
2022/04/03 02:13:41;;;;;;;1.80;1.23;;;;;;;7.31;100.00;61584.28;5093004;28;20449;-72
2022/04/03 02:16:09;;;;;;;2.87;1.30;;;;;;;7.30;100.00;61588.28;5092174;28;20442;-71
2022/04/03 02:18:38;;;;;;;3.97;1.43;;;;;;;7.35;100.00;61585.47;5091862;28;20442;-71
2022/04/03 02:21:05;;;;;;;2.90;1.23;;;;;;;7.20;100.00;61574.53;5092076;28;20991;-71
2022/04/03 02:23:32;;;;;;;2.43;1.50;;;;;;;7.25;100.00;61582.94;5092123;28;20442;-71
2022/04/03 02:25:58;;;;;;;7.23;1.67;;;;;;;7.23;100.00;61575.75;5092168;28;20515;-71
2022/04/03 02:28:25;;;;;;;2.40;1.57;;;;;;;6.40;100.00;61487.16;5092671;28;20484;-71
2022/04/03 02:30:53;;;;;;;3.20;1.30;;;;;;;6.35;100.00;61486.88;5091921;28;20469;-72
2022/04/03 02:33:21;;;;;;;3.00;1.47;;;;;;;7.05;100.00;61556.53;5092499;28;20506;-72
2022/04/03 02:35:50;;;;;;;1.90;1.40;;;;;;;6.92;100.00;61542.66;5091704;28;20449;-72
2022/04/03 02:38:17;;;;;;;2.67;1.10;;;;;;;6.98;100.00;61548.53;5092002;28;20936;-72
2022/04/03 02:40:47;;;;;;;4.20;1.53;;;;;;;5.91;100.00;61441.03;5091912;28;20477;-70
2022/04/03 02:43:14;;;;;;;6.37;1.60;;;;;;;6.89;100.00;61538.91;5092129;28;20472;-71
2022/04/03 02:45:40;;;;;;;2.57;1.43;;;;;;;6.74;100.00;61520.91;5092143;28;20491;-72
2022/04/03 02:48:08;;;;;;;3.17;1.47;;;;;;;6.79;100.00;61528.78;5092450;28;20437;-72
2022/04/03 02:50:36;;;;;;;6.47;1.53;;;;;;;6.84;100.00;61534.63;5091978;28;20540;-71
2022/04/03 02:53:04;;;;;;;2.60;1.67;;;;;;;6.84;100.00;61534.13;5091887;28;20868;-71
2022/04/03 02:55:31;;;;;;;3.10;1.70;;;;;;;6.82;100.00;61531.97;5092063;28;20440;-72
2022/04/03 02:57:58;;;;;;;4.53;1.60;;;;;;;6.92;100.00;61542.13;5091711;28;21091;-70
2022/04/03 03:00:25;;;;;;;2.53;1.47;;;;;;;6.83;100.00;61531.06;5092067;28;20430;-71
2022/04/03 03:02:52;;;;;;;3.93;1.80;;;;;;;6.73;100.00;61522.91;5091830;28;20854;-71
2022/04/03 03:05:19;;;;;;;6.27;1.60;;;;;;;6.60;100.00;61508.50;5091997;28;20498;-71
2022/04/03 03:07:46;;;;;;;2.80;1.40;;;;;;;6.73;100.00;61524.91;5091972;28;20434;-71
2022/04/03 03:10:16;;;;;;;4.47;1.53;;;;;;;6.83;100.00;61535.56;5091847;28;20462;-71
2022/04/03 03:12:44;;;;;;;3.43;1.60;;;;;;;6.70;100.00;61521.72;5091711;28;20497;-72
2022/04/03 03:15:12;;;;;;;4.23;1.50;;;;;;;6.70;100.00;61519.19;5091576;28;20437;-72
2022/04/03 03:17:39;;;;;;;3.20;1.93;;;;;;;6.22;100.00;61467.97;5092223;28;20525;-72
2022/04/03 03:20:07;;;;;;;3.20;2.07;;;;;;;6.46;100.00;61491.03;5091497;28;20507;-71
2022/04/03 03:22:34;;;;;;;4.13;1.87;;;;;;;6.71;100.00;61522.75;5091591;28;20573;-72
2022/04/03 03:25:01;;;;;;;2.87;2.00;;;;;;;6.66;100.00;61514.91;5091696;28;20442;-72
2022/04/03 03:27:29;;;;;;;3.33;1.80;;;;;;;6.72;100.00;61521.31;5091944;28;20566;-72
2022/04/03 03:29:56;;;;;;;5.47;2.30;;;;;;;6.66;100.00;61514.91;5093228;28;20483;-72
2022/04/03 03:32:24;;;;;;;9.97;2.20;;;;;;;6.68;100.00;61517.03;5094631;28;20512;-72
2022/04/03 03:34:50;;;;;;;3.13;1.63;;;;;;;6.58;100.00;61506.88;5095358;28;20440;-70
2022/04/03 03:37:17;;;;;;;3.60;2.30;;;;;;;6.52;100.00;61499.97;5095258;28;20512;-71
2022/04/03 03:39:44;;;;;;;5.87;2.10;;;;;;;6.56;100.00;61504.25;5095314;28;20947;-72
2022/04/03 03:42:11;;;;;;;2.63;2.03;;;;;;;6.53;100.00;61506.63;5095133;28;20546;-72
2022/04/03 03:44:39;;;;;;;5.00;2.57;;;;;;;6.66;100.00;61519.97;5095152;28;20498;-71
2022/04/03 03:47:07;;;;;;;4.17;2.33;;;;;;;6.57;100.00;61505.84;5094926;28;20880;-72
2022/04/03 03:49:34;;;;;;;3.80;2.30;;;;;;;6.51;100.00;61496.38;5094026;28;20491;-73
2022/04/03 03:52:01;;;;;;;3.17;2.17;;;;;;;6.48;100.00;61496.22;5095489;28;20426;-72
2022/04/03 03:54:28;;;;;;;8.17;3.00;;;;;;;6.43;100.00;61490.38;5095117;28;20502;-72
2022/04/03 03:56:55;;;;;;;6.13;3.00;;;;;;;6.34;100.00;61478.25;5095028;28;20502;-72
2022/04/03 03:59:22;;;;;;;5.10;3.20;;;;;;;6.33;100.00;61479.69;5094901;28;20441;-71
2022/04/03 04:01:51;;;;;;;5.20;2.37;;;;;;;6.05;100.00;61449.84;5094501;28;20774;-70
2022/04/03 04:04:18;;;;;;;6.40;2.40;;;;;;;5.83;100.00;61429.97;5097445;28;20437;-71
2022/04/03 04:06:45;;;;;;;4.27;2.50;;;;;;;5.67;100.00;61410.38;5093888;28;20442;-72
2022/04/03 04:09:12;;;;;;;5.30;2.40;;;;;;;5.63;100.00;61406.13;5094544;28;21061;-73
2022/04/03 04:11:39;;;;;;;3.10;2.17;;;;;;;5.64;100.00;61409.69;5094819;28;21027;-72
2022/04/03 04:14:06;;;;;;;5.40;2.37;;;;;;;5.53;100.00;61395.47;5094659;28;20498;-70
2022/04/03 04:16:33;;;;;;;4.80;2.87;;;;;;;5.50;100.00;61394.78;5094450;28;20506;-72
2022/04/03 04:19:01;;;;;;;5.37;2.30;;;;;;;5.60;100.00;61402.91;5094267;28;20524;-71
2022/04/03 04:21:28;;;;;;;6.00;2.67;;;;;;;5.59;100.00;61403.84;5094334;28;20542;-71
2022/04/03 04:23:55;;;;;;;6.00;2.50;;;;;;;5.30;100.00;61370.94;5094505;28;20441;-72
2022/04/03 04:26:22;;;;;;;6.30;2.20;;;;;;;5.56;100.00;61398.66;5094457;28;20448;-71
2022/04/03 04:28:50;;;;;;;6.47;2.30;;;;;;;5.54;100.00;61396.50;5094277;28;20438;-72
2022/04/03 04:31:17;;;;;;;2.60;1.90;;;;;;;5.63;100.00;61406.13;5093974;28;20477;-71
2022/04/03 04:33:45;;;;;;;4.27;2.50;;;;;;;5.67;100.00;61409.84;5094350;28;20483;-72
2022/04/03 04:36:14;;;;;;;6.73;2.57;;;;;;;5.70;100.00;61413.03;5094481;28;20813;-71
2022/04/03 04:38:42;;;;;;;8.30;2.90;;;;;;;5.64;100.00;61412.22;5094078;28;20440;-71
2022/04/03 04:41:09;;;;;;;3.20;2.23;;;;;;;5.80;100.00;61424.22;5093636;28;20477;-72
2022/04/03 04:43:36;;;;;;;4.93;2.60;;;;;;;4.96;100.00;61339.75;5093900;28;20739;-71
2022/04/03 04:46:03;;;;;;;5.67;2.30;;;;;;;5.64;100.00;61407.16;5093800;28;20494;-71
2022/04/03 04:48:29;;;;;;;4.23;2.60;;;;;;;5.84;100.00;61423.47;5094062;28;20833;-71
2022/04/03 04:50:56;;;;;;;6.03;2.70;;;;;;;5.92;100.00;61437.03;5094334;28;20442;-71
2022/04/03 04:53:24;;;;;;;6.43;2.63;;;;;;;6.04;100.00;61448.78;5093629;28;20449;-71
2022/04/03 04:55:51;;;;;;;7.73;2.27;;;;;;;6.15;100.00;61460.50;5093747;28;20464;-71
2022/04/03 04:58:18;;;;;;;5.50;2.57;;;;;;;6.24;100.00;61475.16;5093637;28;20507;-71
2022/04/03 05:00:45;;;;;;;6.97;2.63;;;;;;;6.14;100.00;61459.44;5093991;28;20494;-72
2022/04/03 05:03:12;;;;;;;5.67;2.43;;;;;;;6.24;100.00;61472.63;5093669;28;20581;-71
2022/04/03 05:05:40;;;;;;;5.47;3.47;;;;;;;6.27;100.00;61475.81;5093859;28;20495;-71
2022/04/03 05:08:09;;;;;;;4.93;3.20;;;;;;;6.28;100.00;61472.38;5093625;28;20472;-72
2022/04/03 05:10:40;;;;;;;7.43;3.23;;;;;;;6.45;100.00;61492.50;5093263;28;20966;-73
2022/04/03 05:13:09;;;;;;;5.93;3.17;;;;;;;6.61;100.00;61509.56;5094176;28;20474;-72
2022/04/03 05:15:36;;;;;;;7.33;4.87;;;;;;;6.70;100.00;61519.19;5094019;28;20469;-71
2022/04/03 05:18:03;;;;;;;5.50;2.97;;;;;;;6.70;100.00;61522.22;5093094;28;20502;-72
2022/04/03 05:20:30;;;;;;;3.83;2.53;;;;;;;6.67;100.00;61515.97;5093030;28;20583;-71
2022/04/03 05:22:57;;;;;;;3.93;2.60;;;;;;;6.65;100.00;61516.38;5093273;28;20476;-71
2022/04/03 05:25:24;;;;;;;8.13;3.20;;;;;;;6.67;100.00;61515.97;5093182;28;20441;-71
2022/04/03 05:27:53;;;;;;;3.00;2.27;;;;;;;6.73;100.00;61519.84;5093209;28;20450;-71
2022/04/03 05:30:21;;;;;;;4.70;3.00;;;;;;;6.65;100.00;61513.84;5092752;28;20469;-71
2022/04/03 05:32:49;;;;;;;6.03;3.33;;;;;;;6.61;100.00;61510.09;5092999;28;20491;-72
2022/04/03 05:35:15;;;;;;;6.30;2.93;;;;;;;6.53;100.00;61506.09;5092948;28;20441;-72
2022/04/03 05:37:42;;;;;;;5.90;3.00;;;;;;;6.80;100.00;61529.84;5092904;28;21001;-70
2022/04/03 05:40:12;;;;;;;6.37;3.87;;;;;;;7.06;100.00;61562.66;5092311;28;21030;-71
2022/04/03 05:42:39;;;;;;;10.10;4.40;;;;;;;7.05;100.00;61559.06;5092839;28;20489;-71
2022/04/03 05:45:09;;;;;;;5.10;2.90;;;;;;;6.99;100.00;61550.13;5093042;28;20945;-72
2022/04/03 05:47:38;;;;;;;3.90;2.80;;;;;;;7.02;100.00;61553.34;5092998;28;20494;-72
2022/04/03 05:50:06;;;;;;;4.00;2.70;;;;;;;6.80;100.00;61529.84;5092805;28;20429;-70
2022/04/03 05:52:44;;;;;;;6.63;2.70;;;;;;;7.00;100.00;61551.19;5091777;28;20527;-71
2022/04/03 05:55:11;;;;;;;3.50;2.50;;;;;;;7.25;100.00;61580.41;5092546;28;20441;-72
2022/04/03 05:57:38;;;;;;;5.00;2.73;;;;;;;7.73;100.00;61626.06;5092784;28;20453;-72
2022/04/03 06:00:12;;;;;;;5.40;2.50;;;;;;;8.05;100.00;61657.19;5092955;28;20438;-72
2022/04/03 06:02:58;;;;;;;6.67;2.87;;;;;;;8.45;100.00;61705.56;5092169;28;20508;-72
2022/04/03 06:05:26;;;;;;;3.97;2.30;;;;;;;8.55;100.00;61710.66;5092020;28;20536;-71
2022/04/03 06:07:54;;;;;;;7.67;2.60;;;;;;;9.41;100.00;61806.63;5092241;28;20881;-72
2022/04/03 06:10:23;;;;;;;5.03;2.20;;;;;;;9.96;100.00;61866.03;5092247;28;20817;-71
2022/04/03 06:12:58;;;;;;;2.70;1.70;;;;;;;10.40;100.00;61912.63;5092437;28;20207;-71
2022/04/03 06:15:28;;;;;;;6.80;2.27;;;;;;;10.07;100.00;61877.81;5092313;28;20264;-71
2022/04/03 06:17:55;;;;;;;3.50;2.23;;;;;;;10.90;100.00;61965.66;5093162;28;20195;-73
2022/04/03 06:20:23;;;;;;;2.20;1.43;;;;;;;10.44;100.00;61911.84;5092551;28;20196;-71
2022/04/03 06:22:50;;;;;;;1.10;1.00;;;;;;;10.99;100.00;61975.84;5092044;28;20231;-71
2022/04/03 06:25:17;;;;;;;1.37;0.60;;;;;;;10.55;100.00;61928.69;5091990;28;20193;-71
2022/04/03 06:27:44;;;;;;;1.00;0.73;;;;;;;9.89;100.00;61858.00;5092523;28;20647;-72
2022/04/03 06:30:11;;;;;;;1.70;0.80;;;;;;;9.14;100.00;61778.28;5091955;28;20235;-70
2022/04/03 06:32:39;;;;;;;1.20;0.80;;;;;;;9.23;100.00;61788.44;5092387;28;20554;-72
2022/04/03 06:35:08;;;;;;;1.00;0.87;;;;;;;8.91;100.00;61754.22;5092063;28;20433;-71
2022/04/03 06:37:37;;;;;;;1.20;0.73;;;;;;;8.69;100.00;61730.69;5092671;28;20469;-71
2022/04/03 06:40:05;;;;;;;0.93;0.80;;;;;;;8.66;100.00;61732.56;5091519;28;20480;-71
2022/04/03 06:42:33;;;;;;;1.60;0.80;;;;;;;9.01;100.00;61764.91;5092103;28;20546;-71
2022/04/03 06:45:00;;;;;;;1.87;0.80;;;;;;;9.51;100.00;61822.41;5092103;28;20491;-72
2022/04/03 06:47:28;;;;;;;1.50;0.73;;;;;;;9.44;100.00;61812.91;5092154;28;20503;-71
2022/04/03 06:49:56;;;;;;;0.87;0.73;;;;;;;9.18;100.00;61787.63;5092110;28;20438;-71
2022/04/03 06:52:23;;;;;;;1.03;0.63;;;;;;;8.61;100.00;61722.13;5092040;28;20796;-72
2022/04/03 06:54:50;;;;;;;2.07;0.70;;;;;;;9.38;100.00;61803.44;5092458;28;20450;-71
2022/04/03 06:57:18;;;;;;;1.03;0.70;;;;;;;9.56;100.00;61822.69;5091616;28;20883;-71
2022/04/03 06:59:46;;;;;;;1.57;0.70;;;;;;;9.35;100.00;61801.28;5091703;28;20434;-71
2022/04/03 07:02:12;;;;;;;0.70;0.70;;;;;;;9.53;100.00;61822.00;5092161;28;20690;-71
2022/04/03 07:04:39;;;;;;;1.73;0.50;;;;;;;9.16;100.00;61778.41;5094280;28;20457;-71
2022/04/03 07:07:08;;;;;;;3.13;1.10;;;;;;;9.10;100.00;61772.00;5095665;28;20296;-71
2022/04/03 07:09:40;;;;;;;2.57;0.67;;;;;;;7.98;100.00;61654.78;5095587;28;20461;-72
2022/04/03 07:12:07;;;;;;;1.07;0.50;;;;;;;8.74;100.00;61732.94;5095937;28;20452;-72
2022/04/03 07:14:34;;;;;;;4.37;0.80;;;;;;;8.42;100.00;61704.34;5095397;28;20437;-72
2022/04/03 07:17:01;;;;;;;1.37;1.00;;;;;;;8.42;100.00;61704.34;5095208;28;20434;-71
2022/04/03 07:19:27;;;;;;;2.97;1.60;;;;;;;8.37;100.00;61702.06;5095841;28;20498;-71
2022/04/03 07:21:56;;;;;;;1.87;1.30;;;;;;;8.42;100.00;61704.34;5095318;28;20986;-71
2022/04/03 07:24:25;;;;;;;2.03;1.20;;;;;;;8.39;100.00;61698.63;5095620;28;20472;-71
2022/04/03 07:26:51;;;;;;;2.53;0.77;;;;;;;8.39;100.00;61696.59;5095461;28;20429;-71
2022/04/03 07:29:18;;;;;;;1.13;0.70;;;;;;;8.49;100.00;61709.31;5095447;28;20904;-72
2022/04/03 07:31:45;;;;;;;3.63;0.80;;;;;;;8.37;100.00;61701.56;5094779;28;20473;-72
2022/04/03 07:34:12;;;;;;;2.30;1.10;;;;;;;8.42;100.00;61706.88;5095049;28;20438;-72
2022/04/03 07:36:39;;;;;;;2.63;0.90;;;;;;;7.91;100.00;61654.91;5094882;28;20433;-71
2022/04/03 07:39:05;;;;;;;2.20;0.90;;;;;;;8.63;100.00;61724.28;5095062;28;20433;-71
2022/04/03 07:41:34;;;;;;;4.53;1.03;;;;;;;8.87;100.00;61749.94;5094704;28;20453;-75
2022/04/03 07:44:01;;;;;;;1.57;1.10;;;;;;;9.06;100.00;61775.34;5094712;28;20485;-72
2022/04/03 07:46:29;;;;;;;1.00;0.83;;;;;;;9.19;100.00;61784.16;5094821;28;20441;-71
2022/04/03 07:48:56;;;;;;;1.83;0.97;;;;;;;9.98;100.00;61865.09;5094881;28;20441;-71
2022/04/03 07:51:23;;;;;;;0.90;0.63;;;;;;;10.12;100.00;61885.72;5094877;28;20872;-71
2022/04/03 07:53:51;;;;;;;2.97;0.80;;;;;;;9.75;100.00;61843.00;5095139;28;20191;-71
2022/04/03 07:56:18;;;;;;;1.33;0.67;;;;;;;9.92;100.00;61863.75;5095050;28;20442;-71
2022/04/03 07:58:46;;;;;;;1.17;0.73;;;;;;;9.55;100.00;61821.59;5095685;28;20196;-70
2022/04/03 08:01:15;;;;;;;0.73;0.50;;;;;;;9.39;100.00;61807.56;5094713;28;20449;-72
2022/04/03 08:03:42;;;;;;;2.10;1.00;;;;;;;9.05;100.00;61771.72;5094148;28;20406;-71
2022/04/03 08:06:09;;;;;;;0.97;0.70;;;;;;;9.52;100.00;61818.94;5094379;28;20654;-70
2022/04/03 08:08:37;;;;;;;1.50;1.27;;;;;;;9.67;100.00;61837.00;5094459;28;20233;-72
2022/04/03 08:11:05;;;;;;;1.57;1.10;;;;;;;10.06;100.00;61873.66;5095112;28;20196;-72
2022/04/03 08:13:32;;;;;;;1.27;0.40;;;;;;;10.14;100.00;61884.78;5094376;28;20234;-72
2022/04/03 08:16:01;;;;;;;0.97;0.87;;;;;;;10.56;100.00;61926.69;5093259;28;20966;-72
2022/04/03 08:18:28;;;;;;;0.60;0.40;;;;;;;10.64;100.00;61938.34;5094349;28;20461;-71
2022/04/03 08:20:54;;;;;;;0.70;0.60;;;;;;;10.92;100.00;61963.25;5094029;28;20568;-70
2022/04/03 08:23:21;;;;;;;0.70;0.70;;;;;;;10.88;100.00;61960.97;5094257;28;20477;-71
2022/04/03 08:25:48;;;;;;;2.43;1.00;;;;;;;11.33;100.00;62008.69;5094019;28;20667;-72
2022/04/03 08:28:16;;;;;;;2.40;0.60;;;;;;;10.87;100.00;61962.97;5095154;28;20199;-72
2022/04/03 08:30:42;;;;;;;1.93;0.83;;;;;;;10.22;100.00;61893.38;5094352;28;20848;-72
2022/04/03 08:33:11;;;;;;;1.10;0.53;;;;;;;9.86;100.00;61852.25;5094139;28;20257;-72
2022/04/03 08:35:40;;;;;;;2.20;0.80;;;;;;;10.08;100.00;61875.81;5094706;28;20196;-72
2022/04/03 08:38:08;;;;;;;1.07;0.90;;;;;;;10.41;100.00;61913.69;5093130;28;20196;-72
2022/04/03 08:40:35;;;;;;;1.07;0.50;;;;;;;10.31;100.00;61897.34;5094709;28;20200;-71
2022/04/03 08:43:03;;;;;;;1.30;0.60;;;;;;;10.00;100.00;61869.78;5093536;28;20219;-71
2022/04/03 08:45:30;;;;;;;1.07;0.63;;;;;;;9.95;100.00;61864.41;5094095;28;20806;-71
2022/04/03 08:47:59;;;;;;;1.27;1.17;;;;;;;9.82;100.00;61850.50;5093636;28;20200;-71
2022/04/03 08:50:29;;;;;;;0.93;0.50;;;;;;;9.50;100.00;61821.34;5094089;28;20252;-72
2022/04/03 08:52:58;;;;;;;1.53;0.60;;;;;;;9.62;100.00;61827.09;5094282;28;20520;-72
2022/04/03 08:55:26;;;;;;;0.83;0.67;;;;;;;9.65;100.00;61832.31;5093687;28;20438;-73
2022/04/03 08:57:53;;;;;;;3.80;1.00;;;;;;;9.82;100.00;61850.50;5093678;28;20542;-72
2022/04/03 09:00:22;;;;;;;0.77;0.77;;;;;;;9.98;100.00;61865.09;5093888;28;20442;-71
2022/04/03 09:02:51;;;;;;;1.47;0.80;;;;;;;8.95;100.00;61763.03;5094000;28;20223;-71
2022/04/03 09:05:18;;;;;;;3.23;0.77;;;;;;;9.70;100.00;61837.66;5093157;28;20282;-71
2022/04/03 09:07:59;;;;;;;3.10;0.97;;;;;;;10.13;100.00;61888.81;5093403;28;20438;-70
2022/04/03 09:10:26;;;;;;;0.97;0.70;;;;;;;9.95;100.00;61861.88;5093131;28;20457;-71
2022/04/03 09:12:52;;;;;;;1.13;0.73;;;;;;;9.74;100.00;61839.41;5093108;28;20597;-71
2022/04/03 09:15:21;;;;;;;1.30;0.90;;;;;;;9.98;100.00;61867.66;5093725;28;20196;-71
2022/04/03 09:17:49;;;;;;;0.70;0.50;;;;;;;9.91;100.00;61860.13;5093430;28;20196;-73
2022/04/03 09:20:18;;;;;;;0.40;0.40;;;;;;;10.03;100.00;61873.00;5093300;28;20201;-72
2022/04/03 09:22:49;;;;;;;0.67;0.47;;;;;;;9.93;100.00;61862.28;5093026;28;20227;-71
2022/04/03 09:25:19;;;;;;;1.23;0.70;;;;;;;10.33;100.00;61907.13;5092056;28;20442;-72
2022/04/03 09:27:48;;;;;;;0.77;0.70;;;;;;;10.94;100.00;61970.50;5093334;28;20207;-72
2022/04/03 09:30:15;;;;;;;1.27;0.80;;;;;;;11.44;100.00;62023.00;5093181;28;20532;-72
2022/04/03 09:32:47;;;;;;;3.60;0.90;;;;;;;11.80;100.00;62061.63;5093164;28;20277;-72
2022/04/03 09:35:14;;;;;;;1.23;0.90;;;;;;;11.88;100.00;62067.66;5092765;28;20199;-72
2022/04/03 09:38:13;;;;;;;1.53;1.13;;;;;;;11.61;100.00;62041.25;5092867;28;20260;-71
2022/04/03 09:40:41;;;;;;;1.63;1.20;;;;;;;11.41;100.00;62020.31;5092608;28;20665;-72
2022/04/03 09:43:20;;;;;;;2.13;1.53;;;;;;;11.02;100.00;61979.06;5092656;28;20223;-71
2022/04/03 09:45:51;;;;;;;2.97;1.80;;;;;;;10.33;100.00;61907.69;5092961;28;20279;-72
2022/04/03 09:48:26;;;;;;;5.47;2.23;;;;;;;9.78;100.00;61846.22;5092518;28;20241;-72
2022/04/03 09:51:02;;;;;;;3.77;2.10;;;;;;;9.57;100.00;61823.75;5092918;28;20256;-71
2022/04/03 09:53:42;;;;;;;2.53;1.87;;;;;;;9.09;100.00;61776.00;5093111;28;20441;-71
2022/04/03 09:56:09;;;;;;;2.97;1.80;;;;;;;9.50;100.00;61813.72;5092636;28;20898;-72
2022/04/03 09:58:46;;;;;;;3.00;1.97;;;;;;;9.95;100.00;61861.88;5093085;28;20295;-71
2022/04/03 10:01:23;;;;;;;3.50;2.53;;;;;;;10.27;100.00;61898.72;5092517;28;20282;-71
2022/04/03 10:03:51;;;;;;;2.23;1.30;;;;;;;11.68;100.00;62048.75;5092557;28;20219;-71
2022/04/03 10:06:19;;;;;;;1.43;1.33;;;;;;;12.09;100.00;62090.19;5092322;28;20234;-72
2022/04/03 10:08:48;;;;;;;1.57;1.37;;;;;;;12.66;100.00;62151.38;5092671;28;20686;-70
2022/04/03 10:11:16;;;;;;;1.73;1.20;;;;;;;12.69;100.00;62157.16;5092449;28;20195;-70
2022/04/03 10:13:43;;;;;;;2.20;1.50;;;;;;;12.67;100.00;62155.00;5091868;28;20286;-71
2022/04/03 10:16:10;;;;;;;2.73;1.73;;;;;;;12.71;100.00;62158.75;5092263;28;20192;-71
2022/04/03 10:18:37;;;;;;;5.10;3.13;;;;;;;12.85;100.00;62173.78;5092281;28;20200;-72
2022/04/03 10:21:08;;;;;;;4.17;2.40;;;;;;;12.70;100.00;62158.22;5092272;28;20253;-71
2022/04/03 10:23:38;;;;;;;4.63;2.40;;;;;;;12.78;100.00;62165.75;5092469;28;20253;-71
2022/04/03 10:26:09;;;;;;;3.83;2.13;;;;;;;12.48;100.00;62134.06;5092196;28;20256;-71
2022/04/03 10:28:38;;;;;;;3.53;2.20;;;;;;;12.42;100.00;62128.16;5092206;28;20214;-71
2022/04/03 10:31:07;;;;;;;3.80;2.00;;;;;;;12.29;100.00;62109.09;5092359;28;20227;-71
2022/04/03 10:33:39;;;;;;;2.63;1.93;;;;;;;12.30;100.00;62115.28;5092209;28;20489;-72
2022/04/03 10:36:09;;;;;;;3.20;1.70;;;;;;;12.32;100.00;62112.31;5091975;28;20249;-71
2022/04/03 10:38:38;;;;;;;4.53;2.27;;;;;;;12.57;100.00;62141.72;5092250;28;20202;-72
2022/04/03 10:41:07;;;;;;;3.07;1.87;;;;;;;12.78;100.00;62170.84;5092498;28;20206;-72
2022/04/03 10:43:40;;;;;;;2.20;1.30;;;;;;;13.30;100.00;62221.59;5092165;28;20231;-72
2022/04/03 10:46:08;;;;;;;7.70;1.60;;;;;;;13.61;100.00;62252.34;5092060;28;20662;-72
2022/04/03 10:48:36;;;;;;;2.47;1.90;;;;;;;13.94;100.00;62290.38;5091766;28;20199;-72
2022/04/03 10:51:09;;;;;;;1.57;1.40;;;;;;;13.73;100.00;62277.50;5091850;28;20199;-71
2022/04/03 10:53:38;;;;;;;2.73;1.27;;;;;;;14.85;100.00;62384.59;5092221;28;20557;-71
2022/04/03 10:56:11;;;;;;;3.40;1.57;;;;;;;14.67;100.00;62365.25;5091925;28;20199;-72
2022/04/03 10:58:43;;;;;;;1.60;1.50;;;;;;;15.66;100.00;62466.66;5092404;28;20199;-71
2022/04/03 11:01:21;;;;;;;1.87;1.20;;;;;;;16.03;98.60;62508.53;5092644;28;20199;-71
2022/04/03 11:03:54;;;;;;;2.00;1.60;;;;;;;15.43;92.00;62447.03;5091671;28;20311;-72
2022/04/03 11:06:27;;;;;;;2.37;1.70;;;;;;;14.78;94.84;62379.63;5092407;28;20199;-74
2022/04/03 11:09:11;;;;;;;3.33;2.30;;;;;;;14.17;100.00;62309.41;5091581;28;20220;-73
2022/04/03 11:11:42;;;;;;;2.30;1.70;;;;;;;12.48;100.00;62129.50;5092102;28;20203;-71
2022/04/03 11:14:10;;;;;;;1.93;1.47;;;;;;;12.04;100.00;62087.38;5090883;28;20216;-72
2022/04/03 11:16:57;;;;;;;1.97;1.50;;;;;;;11.68;100.00;62049.31;5092009;28;20621;-73
2022/04/03 11:19:34;;;;;;;2.60;1.80;;;;;;;11.49;100.00;62028.38;5091593;28;20670;-72
2022/04/03 11:22:02;;;;;;;2.20;1.57;;;;;;;11.23;100.00;62003.06;5091898;28;20199;-72
2022/04/03 11:24:29;;;;;;;3.60;1.73;;;;;;;11.11;100.00;61987.63;5091747;28;20227;-72
2022/04/03 11:26:58;;;;;;;4.10;1.80;;;;;;;10.86;100.00;61961.91;5091788;28;20655;-70
2022/04/03 11:29:26;;;;;;;3.63;1.60;;;;;;;10.31;100.00;61897.34;5091979;28;20719;-71
2022/04/03 11:31:54;;;;;;;1.73;1.50;;;;;;;10.94;100.00;61970.50;5092432;28;20673;-72
2022/04/03 11:34:20;;;;;;;2.30;1.43;;;;;;;10.63;100.00;61937.25;5091686;28;20198;-72
2022/04/03 11:36:48;;;;;;;3.67;1.70;;;;;;;10.91;100.00;61967.28;5091657;28;20207;-72